Time,TemperatureF,DewpointF,PressureIn,WindDirection,WindDirectionDegrees,WindSpeedMPH,WindSpeedGustMPH,Humidity,HourlyPrecipIn,Conditions,Clouds,dailyrainin,SoftwareType,DateUTC
2013-08-23 00:01:00,66.4,64.3,30.06,WNW,292,0.0,0.0,93,0.00,,-RA,0.17,VWS V14.01,2013-08-23 04:01:00,
2013-08-23 00:06:00,66.4,64.6,30.06,West,270,0.0,0.0,94,0.00,,-RA,0.17,VWS V14.01,2013-08-23 04:06:00,
2013-08-23 00:11:00,66.4,64.6,30.06,NNW,338,0.9,0.9,94,0.00,,-RA,0.00,VWS V14.01,2013-08-23 04:11:00,
2013-08-23 00:16:00,66.4,64.6,30.06,WNW,292,0.0,0.0,94,0.00,,-RA,0.00,VWS V14.01,2013-08-23 04:16:00,
2013-08-23 00:21:00,66.2,64.4,30.06,WNW,292,0.0,0.0,94,0.00,,-RA,0.00,VWS V14.01,2013-08-23 04:21:00,
2013-08-23 00:26:00,66.0,64.2,30.06,North,0,0.0,0.0,94,0.00,,-RA,0.00,VWS V14.01,2013-08-23 04:26:00,
2013-08-23 00:31:00,66.0,64.2,30.06,West,270,0.0,0.0,94,0.00,,-RA,0.00,VWS V14.01,2013-08-23 04:31:00,
2013-08-23 00:36:00,65.8,64.1,30.06,WNW,292,0.0,0.0,94,0.00,,-RA,0.00,VWS V14.01,2013-08-23 04:36:00,
2013-08-23 00:41:00,65.7,63.9,30.06,WNW,292,0.0,0.0,94,0.00,,-RA,0.00,VWS V14.01,2013-08-23 04:41:00,
2013-08-23 00:46:00,65.5,63.4,30.06,WNW,292,0.0,0.0,93,0.00,,-RA,0.00,VWS V14.01,2013-08-23 04:46:00,
2013-08-23 00:51:00,65.3,63.2,30.06,WNW,292,0.0,0.0,93,0.00,,-RA,0.00,VWS V14.01,2013-08-23 04:51:00,
2013-08-23 00:56:00,65.1,62.7,30.06,NNW,338,3.4,3.4,92,0.00,,-RA,0.00,VWS V14.01,2013-08-23 04:56:00,
2013-08-23 01:01:00,64.9,62.6,30.06,NNE,22,0.0,0.0,92,0.00,,-RA,0.00,VWS V14.01,2013-08-23 05:01:00,
2013-08-23 01:06:00,64.8,62.4,30.06,NNE,22,0.0,0.0,92,0.00,,-RA,0.00,VWS V14.01,2013-08-23 05:06:00,
2013-08-23 01:11:00,64.6,62.2,30.06,North,0,0.0,0.0,92,0.00,,-RA,0.00,VWS V14.01,2013-08-23 05:11:00,
2013-08-23 01:16:00,64.4,61.7,30.06,NW,315,0.0,0.0,91,0.00,,-RA,0.00,VWS V14.01,2013-08-23 05:16:00,
2013-08-23 01:21:00,64.2,61.5,30.06,North,0,2.0,2.0,91,0.00,,-RA,0.00,VWS V14.01,2013-08-23 05:21:00,
2013-08-23 01:26:00,64.0,61.4,30.06,NNW,338,0.0,0.0,91,0.00,,-RA,0.00,VWS V14.01,2013-08-23 05:26:00,
2013-08-23 01:31:00,63.9,60.9,30.06,NNE,22,0.0,0.0,90,0.00,,-RA,0.00,VWS V14.01,2013-08-23 05:31:00,
2013-08-23 01:36:00,63.7,60.4,30.06,SSW,202,0.0,0.0,89,0.00,,-RA,0.00,VWS V14.01,2013-08-23 05:36:00,
2013-08-23 01:41:00,63.5,59.9,30.06,ESE,112,0.9,0.9,88,0.00,,-RA,0.00,VWS V14.01,2013-08-23 05:41:00,
2013-08-23 01:46:00,63.3,59.4,30.06,NNW,338,0.0,0.0,87,0.00,,-RA,0.00,VWS V14.01,2013-08-23 05:46:00,
2013-08-23 01:51:00,63.1,59.2,30.06,North,0,2.5,2.5,87,0.00,,-RA,0.00,VWS V14.01,2013-08-23 05:51:00,
2013-08-23 01:56:00,63.0,58.4,30.06,NW,315,0.0,0.0,85,0.00,,-RA,0.00,VWS V14.01,2013-08-23 05:56:00,
2013-08-23 02:01:00,63.0,58.1,30.06,NNW,338,0.0,0.0,84,0.00,,-RA,0.00,VWS V14.01,2013-08-23 06:01:00,
2013-08-23 02:06:00,62.8,57.5,30.06,NNW,338,0.0,0.0,83,0.00,,-RA,0.00,VWS V14.01,2013-08-23 06:06:00,
2013-08-23 02:11:00,62.6,57.4,30.06,NNW,338,1.3,1.3,83,0.00,,-RA,0.00,VWS V14.01,2013-08-23 06:11:00,
2013-08-23 02:16:00,62.4,57.2,30.06,WNW,292,0.0,0.0,83,0.00,,-RA,0.00,VWS V14.01,2013-08-23 06:16:00,
2013-08-23 02:21:00,62.2,57.0,30.06,NNW,338,0.0,0.0,83,0.00,,-RA,0.00,VWS V14.01,2013-08-23 06:21:00,
2013-08-23 02:26:00,62.1,56.5,30.06,North,0,0.0,0.0,82,0.00,,-RA,0.00,VWS V14.01,2013-08-23 06:26:00,
2013-08-23 02:31:00,61.9,56.7,30.06,NNW,338,0.0,0.0,83,0.00,,-RA,0.00,VWS V14.01,2013-08-23 06:31:00,
2013-08-23 02:36:00,61.7,56.2,30.06,NNE,22,0.0,0.0,82,0.00,,-RA,0.00,VWS V14.01,2013-08-23 06:36:00,
2013-08-23 02:41:00,61.5,56.0,30.06,NW,315,0.0,0.0,82,0.00,,-RA,0.00,VWS V14.01,2013-08-23 06:41:00,
2013-08-23 02:46:00,61.3,55.8,30.06,WNW,292,0.0,0.0,82,0.00,,-RA,0.00,VWS V14.01,2013-08-23 06:46:00,
2013-08-23 02:51:00,61.2,56.0,30.06,WNW,292,0.0,0.0,83,0.00,,-RA,0.00,VWS V14.01,2013-08-23 06:51:00,
2013-08-23 02:56:00,61.0,55.8,30.06,WNW,292,0.0,0.0,83,0.00,,-RA,0.00,VWS V14.01,2013-08-23 06:56:00,
2013-08-23 03:01:00,60.8,55.6,30.06,WNW,292,0.0,0.0,83,0.00,,-RA,0.00,VWS V14.01,2013-08-23 07:01:00,
2013-08-23 03:06:00,60.6,55.4,30.06,WSW,248,0.0,0.0,83,0.00,,-RA,0.00,VWS V14.01,2013-08-23 07:06:00,
2013-08-23 03:11:00,60.4,55.3,30.06,SSW,202,0.0,0.0,83,0.00,,-RA,0.00,VWS V14.01,2013-08-23 07:11:00,
2013-08-23 03:16:00,60.3,55.1,30.09,SSW,202,0.0,0.0,83,0.00,,-RA,0.00,VWS V14.01,2013-08-23 07:16:00,
2013-08-23 03:21:00,60.1,54.9,30.09,SSW,202,0.0,0.0,83,0.00,,-RA,0.00,VWS V14.01,2013-08-23 07:21:00,
2013-08-23 03:26:00,59.9,55.1,30.09,SSW,202,0.0,0.0,84,0.00,,-RA,0.00,VWS V14.01,2013-08-23 07:26:00,
2013-08-23 03:31:00,59.7,54.9,30.06,WNW,292,0.0,0.0,84,0.00,,-RA,0.00,VWS V14.01,2013-08-23 07:31:00,
2013-08-23 03:36:00,59.5,54.7,30.06,NW,315,0.0,0.0,84,0.00,,-RA,0.00,VWS V14.01,2013-08-23 07:36:00,
2013-08-23 03:41:00,59.4,54.5,30.06,SSW,202,0.0,0.0,84,0.00,,-RA,0.00,VWS V14.01,2013-08-23 07:41:00,
2013-08-23 03:46:00,59.2,54.4,30.09,South,180,0.0,0.0,84,0.00,,-RA,0.00,VWS V14.01,2013-08-23 07:46:00,
2013-08-23 03:51:00,59.0,54.2,30.09,South,180,0.0,0.0,84,0.00,,-RA,0.00,VWS V14.01,2013-08-23 07:51:00,
2013-08-23 03:56:00,58.8,54.3,30.09,West,270,0.0,0.0,85,0.00,,-RA,0.00,VWS V14.01,2013-08-23 07:56:00,
2013-08-23 04:01:00,58.6,54.2,30.09,West,270,0.0,0.0,85,0.00,,-RA,0.00,VWS V14.01,2013-08-23 08:01:00,
2013-08-23 04:06:00,58.6,54.2,30.09,West,270,0.0,0.0,85,0.00,,-RA,0.00,VWS V14.01,2013-08-23 08:06:00,
2013-08-23 04:11:00,58.5,54.3,30.09,WNW,292,0.0,0.0,86,0.00,,-RA,0.00,VWS V14.01,2013-08-23 08:11:00,
2013-08-23 04:16:00,58.3,54.1,30.09,WNW,292,0.0,0.0,86,0.00,,-RA,0.00,VWS V14.01,2013-08-23 08:16:00,
2013-08-23 04:21:00,58.1,53.9,30.09,WNW,292,0.0,0.0,86,0.00,,-RA,0.00,VWS V14.01,2013-08-23 08:21:00,
2013-08-23 04:26:00,57.9,53.8,30.09,West,270,0.0,0.0,86,0.00,,-RA,0.00,VWS V14.01,2013-08-23 08:26:00,
2013-08-23 04:31:00,57.9,53.8,30.06,West,270,0.0,0.0,86,0.00,,-RA,0.00,VWS V14.01,2013-08-23 08:31:00,
2013-08-23 04:36:00,57.7,53.6,30.06,West,270,0.0,0.0,86,0.00,,-RA,0.00,VWS V14.01,2013-08-23 08:36:00,
2013-08-23 04:41:00,57.6,53.7,30.06,West,270,0.0,0.0,87,0.00,,-RA,0.00,VWS V14.01,2013-08-23 08:41:00,
2013-08-23 04:46:00,57.6,53.7,30.09,West,270,0.0,0.0,87,0.00,,-RA,0.00,VWS V14.01,2013-08-23 08:46:00,
2013-08-23 04:51:00,57.4,53.5,30.09,West,270,0.0,0.0,87,0.00,,-RA,0.00,VWS V14.01,2013-08-23 08:51:00,
2013-08-23 04:56:00,57.2,53.4,30.09,West,270,0.0,0.0,87,0.00,,-RA,0.00,VWS V14.01,2013-08-23 08:56:00,
2013-08-23 05:01:00,57.2,53.4,30.09,WSW,248,0.0,0.0,87,0.00,,-RA,0.00,VWS V14.01,2013-08-23 09:01:00,
2013-08-23 05:06:00,57.0,53.5,30.09,WSW,248,0.0,0.0,88,0.00,,-RA,0.00,VWS V14.01,2013-08-23 09:06:00,
2013-08-23 05:11:00,57.0,53.5,30.09,WSW,248,0.0,0.0,88,0.00,,-RA,0.00,VWS V14.01,2013-08-23 09:11:00,
2013-08-23 05:16:00,56.8,53.3,30.09,WSW,248,0.0,0.0,88,0.00,,-RA,0.00,VWS V14.01,2013-08-23 09:16:00,
2013-08-23 05:20:00,56.8,53.3,30.09,SW,225,0.0,0.0,88,0.00,,-RA,0.00,VWS V14.01,2013-08-23 09:20:00,
2013-08-23 05:25:00,56.7,53.2,30.09,SW,225,0.0,0.0,88,0.00,,-RA,0.00,VWS V14.01,2013-08-23 09:25:00,
2013-08-23 05:30:00,56.7,53.5,30.09,WSW,248,0.0,0.0,89,0.00,,-RA,0.00,VWS V14.01,2013-08-23 09:30:00,
2013-08-23 05:35:00,56.5,53.0,30.09,WSW,248,0.0,0.0,88,0.00,,-RA,0.00,VWS V14.01,2013-08-23 09:35:00,
2013-08-23 05:40:00,56.3,53.1,30.09,NW,315,0.0,0.0,89,0.00,,-RA,0.00,VWS V14.01,2013-08-23 09:40:00,
2013-08-23 05:45:00,56.3,53.1,30.09,NW,315,0.0,0.0,89,0.00,,-RA,0.00,VWS V14.01,2013-08-23 09:45:00,
2013-08-23 05:50:00,56.1,52.9,30.09,NW,315,0.0,0.0,89,0.00,,-RA,0.00,VWS V14.01,2013-08-23 09:50:00,
2013-08-23 05:55:00,55.9,52.8,30.09,NW,315,0.0,0.0,89,0.00,,-RA,0.00,VWS V14.01,2013-08-23 09:55:00,
2013-08-23 06:00:00,55.9,52.8,30.09,WSW,248,0.0,0.0,89,0.00,,-RA,0.00,VWS V14.01,2013-08-23 10:00:00,
2013-08-23 06:05:00,55.8,52.6,30.09,WSW,248,0.0,0.0,89,0.00,,-RA,0.00,VWS V14.01,2013-08-23 10:05:00,
2013-08-23 06:10:00,55.8,52.9,30.09,WSW,248,0.0,0.0,90,0.00,,-RA,0.00,VWS V14.01,2013-08-23 10:10:00,
2013-08-23 06:15:00,55.8,52.9,30.09,WSW,248,0.0,0.0,90,0.00,,-RA,0.00,VWS V14.01,2013-08-23 10:15:00,
2013-08-23 06:20:00,55.6,52.7,30.09,West,270,0.0,0.0,90,0.00,,-RA,0.00,VWS V14.01,2013-08-23 10:20:00,
2013-08-23 06:25:00,55.6,52.7,30.09,West,270,0.0,0.0,90,0.00,,-RA,0.00,VWS V14.01,2013-08-23 10:25:00,
2013-08-23 06:30:00,55.4,52.5,30.09,West,270,0.0,0.0,90,0.00,,-RA,0.00,VWS V14.01,2013-08-23 10:30:00,
2013-08-23 06:35:00,55.4,52.5,30.09,West,270,0.0,0.0,90,0.00,,-RA,0.00,VWS V14.01,2013-08-23 10:35:00,
2013-08-23 06:40:00,55.2,52.3,30.09,West,270,0.0,0.0,90,0.00,,-RA,0.00,VWS V14.01,2013-08-23 10:40:00,
2013-08-23 06:45:00,55.2,52.3,30.09,WNW,292,0.0,0.0,90,0.00,,-RA,0.00,VWS V14.01,2013-08-23 10:45:00,
2013-08-23 06:50:00,55.0,52.5,30.09,WNW,292,0.0,0.0,91,0.00,,-RA,0.00,VWS V14.01,2013-08-23 10:50:00,
2013-08-23 06:55:00,54.9,52.3,30.09,WNW,292,0.0,0.0,91,0.00,,-RA,0.00,VWS V14.01,2013-08-23 10:55:00,
2013-08-23 07:00:00,54.9,52.3,30.12,WNW,292,0.0,0.0,91,0.00,,-RA,0.00,VWS V14.01,2013-08-23 11:00:00,
2013-08-23 07:05:00,54.9,52.3,30.12,WNW,292,0.0,0.0,91,0.00,,-RA,0.00,VWS V14.01,2013-08-23 11:05:00,
2013-08-23 07:10:00,54.7,52.1,30.12,WNW,292,0.0,0.0,91,0.00,,-RA,0.00,VWS V14.01,2013-08-23 11:10:00,
2013-08-23 07:15:00,54.7,52.1,30.12,West,270,0.0,0.0,91,0.00,,-RA,0.00,VWS V14.01,2013-08-23 11:15:00,
2013-08-23 07:20:00,54.7,52.1,30.12,West,270,0.0,0.0,91,0.00,,-RA,0.00,VWS V14.01,2013-08-23 11:20:00,
2013-08-23 07:25:00,54.7,52.1,30.12,West,270,0.0,0.0,91,0.00,,-RA,0.00,VWS V14.01,2013-08-23 11:25:00,
2013-08-23 07:30:00,54.7,52.1,30.12,West,270,0.0,0.0,91,0.00,,-RA,0.00,VWS V14.01,2013-08-23 11:30:00,
2013-08-23 07:35:00,54.7,52.1,30.12,West,270,0.0,0.0,91,0.00,,-RA,0.00,VWS V14.01,2013-08-23 11:35:00,
2013-08-23 07:40:00,54.9,52.3,30.12,West,270,0.0,0.0,91,0.00,,-RA,0.00,VWS V14.01,2013-08-23 11:40:00,
2013-08-23 07:45:00,55.0,52.8,30.12,WNW,292,0.0,0.0,92,0.00,,-RA,0.00,VWS V14.01,2013-08-23 11:45:00,
2013-08-23 07:50:00,55.4,53.4,30.12,WNW,292,0.0,0.0,93,0.00,,-RA,0.00,VWS V14.01,2013-08-23 11:50:00,
2013-08-23 07:55:00,55.6,53.6,30.12,NW,315,0.0,0.0,93,0.00,,-RA,0.00,VWS V14.01,2013-08-23 11:55:00,
2013-08-23 08:00:00,56.1,54.1,30.12,WNW,292,0.0,0.0,93,0.00,,-RA,0.00,VWS V14.01,2013-08-23 12:00:00,
2013-08-23 08:05:00,56.8,55.1,30.12,NW,315,0.0,0.0,94,0.00,,-RA,0.00,VWS V14.01,2013-08-23 12:05:00,
2013-08-23 08:10:00,57.0,55.3,30.12,NE,45,0.0,0.0,94,0.00,,-RA,0.00,VWS V14.01,2013-08-23 12:10:00,
2013-08-23 08:15:00,57.4,55.7,30.12,NE,45,2.0,2.0,94,0.00,,-RA,0.00,VWS V14.01,2013-08-23 12:15:00,
2013-08-23 08:20:00,57.7,56.0,30.12,North,0,1.6,1.6,94,0.00,,-RA,0.00,VWS V14.01,2013-08-23 12:20:00,
2013-08-23 08:25:00,58.3,56.6,30.12,WNW,292,0.9,0.9,94,0.00,,-RA,0.00,VWS V14.01,2013-08-23 12:25:00,
2013-08-23 08:30:00,59.0,56.4,30.12,NNE,22,3.6,3.6,91,0.00,,-RA,0.00,VWS V14.01,2013-08-23 12:30:00,
2013-08-23 08:35:00,59.5,55.3,30.12,NNW,338,0.0,0.0,86,0.00,,-RA,0.00,VWS V14.01,2013-08-23 12:35:00,
2013-08-23 08:40:00,59.9,54.7,30.12,East,90,3.1,3.1,83,0.00,,-RA,0.00,VWS V14.01,2013-08-23 12:40:00,
2013-08-23 08:45:00,60.8,52.5,30.12,NNE,22,2.5,2.5,74,0.00,,-RA,0.00,VWS V14.01,2013-08-23 12:45:00,
2013-08-23 08:50:00,61.2,52.8,30.12,North,0,0.0,0.0,74,0.00,,-RA,0.00,VWS V14.01,2013-08-23 12:50:00,
2013-08-23 08:55:00,61.5,52.8,30.12,SSW,202,2.0,2.0,73,0.00,,-RA,0.00,VWS V14.01,2013-08-23 12:55:00,
2013-08-23 09:00:00,61.9,52.8,30.15,ENE,68,2.5,2.5,72,0.00,,-RA,0.00,VWS V14.01,2013-08-23 13:00:00,
2013-08-23 09:05:00,62.2,52.0,30.15,NNW,338,2.0,2.0,69,0.00,,-RA,0.00,VWS V14.01,2013-08-23 13:05:00,
2013-08-23 09:10:00,62.6,51.9,30.15,NNE,22,0.0,0.0,68,0.00,,-RA,0.00,VWS V14.01,2013-08-23 13:10:00,
2013-08-23 09:15:00,63.0,50.6,30.15,NNE,22,2.5,2.5,64,0.00,,-RA,0.00,VWS V14.01,2013-08-23 13:15:00,
2013-08-23 09:20:00,63.1,49.9,30.15,North,0,3.4,3.4,62,0.00,,-RA,0.00,VWS V14.01,2013-08-23 13:20:00,
2013-08-23 09:25:00,63.5,50.7,30.15,ENE,68,3.6,3.6,63,0.00,,-RA,0.00,VWS V14.01,2013-08-23 13:25:00,
2013-08-23 09:30:00,63.9,50.6,30.15,ENE,68,2.9,2.9,62,0.00,,-RA,0.00,VWS V14.01,2013-08-23 13:30:00,
2013-08-23 09:35:00,64.2,50.5,30.15,NE,45,2.0,2.0,61,0.00,,-RA,0.00,VWS V14.01,2013-08-23 13:35:00,
2013-08-23 09:40:00,64.6,49.0,30.15,North,0,1.6,1.6,57,0.00,,-RA,0.00,VWS V14.01,2013-08-23 13:40:00,
2013-08-23 09:45:00,64.6,49.0,30.15,SSE,158,2.0,2.0,57,0.00,,-RA,0.00,VWS V14.01,2013-08-23 13:45:00,
2013-08-23 09:50:00,64.6,49.0,30.15,NNE,22,2.0,2.0,57,0.00,,-RA,0.00,VWS V14.01,2013-08-23 13:50:00,
2013-08-23 09:55:00,64.6,49.0,30.15,NNE,22,3.4,3.4,57,0.00,,-RA,0.00,VWS V14.01,2013-08-23 13:55:00,
2013-08-23 10:00:00,66.0,49.4,30.15,NW,315,3.4,3.4,55,0.00,,-RA,0.00,VWS V14.01,2013-08-23 14:00:00,
2013-08-23 10:05:00,66.6,47.4,30.15,NW,315,3.8,3.8,50,0.00,,-RA,0.00,VWS V14.01,2013-08-23 14:05:00,
2013-08-23 10:10:00,67.5,48.2,30.15,NNE,22,2.5,2.5,50,0.00,,-RA,0.00,VWS V14.01,2013-08-23 14:10:00,
2013-08-23 10:15:00,68.9,47.9,30.15,NE,45,3.4,3.4,47,0.00,,-RA,0.00,VWS V14.01,2013-08-23 14:15:00,
2013-08-23 10:20:00,70.0,50.0,30.15,SE,135,2.2,2.2,49,0.00,,-RA,0.00,VWS V14.01,2013-08-23 14:20:00,
2013-08-23 10:25:00,71.1,50.4,30.15,NNW,338,0.9,0.9,48,0.00,,-RA,0.00,VWS V14.01,2013-08-23 14:25:00,
2013-08-23 10:30:00,71.2,49.4,30.15,ESE,112,2.9,2.9,46,0.00,,-RA,0.00,VWS V14.01,2013-08-23 14:30:00,
2013-08-23 10:35:00,71.8,49.9,30.15,North,0,0.0,0.0,46,0.00,,-RA,0.00,VWS V14.01,2013-08-23 14:35:00,
2013-08-23 10:40:00,71.8,49.9,30.15,South,180,0.0,0.0,46,0.00,,-RA,0.00,VWS V14.01,2013-08-23 14:40:00,
2013-08-23 10:45:00,72.1,48.4,30.15,NNE,22,3.8,3.8,43,0.00,,-RA,0.00,VWS V14.01,2013-08-23 14:45:00,
2013-08-23 10:50:00,72.1,47.8,30.15,South,180,0.0,0.0,42,0.00,,-RA,0.00,VWS V14.01,2013-08-23 14:50:00,
2013-08-23 10:55:00,72.5,48.1,30.15,SE,135,0.0,0.0,42,0.00,,-RA,0.00,VWS V14.01,2013-08-23 14:55:00,
2013-08-23 11:00:00,72.9,49.1,30.15,ENE,68,4.3,4.3,43,0.00,,-RA,0.00,VWS V14.01,2013-08-23 15:00:00,
2013-08-23 11:05:00,73.0,48.6,30.15,NE,45,3.6,3.6,42,0.00,,-RA,0.00,VWS V14.01,2013-08-23 15:05:00,
2013-08-23 11:10:00,73.2,48.1,30.15,ENE,68,3.4,3.4,41,0.00,,-RA,0.00,VWS V14.01,2013-08-23 15:10:00,
2013-08-23 11:15:00,73.6,48.5,30.15,ESE,112,0.0,0.0,41,0.00,,-RA,0.00,VWS V14.01,2013-08-23 15:15:00,
2013-08-23 11:20:00,73.9,48.8,30.15,NW,315,0.0,0.0,41,0.00,,-RA,0.00,VWS V14.01,2013-08-23 15:20:00,
2013-08-23 11:25:00,74.3,49.1,30.15,ENE,68,2.0,2.0,41,0.00,,-RA,0.00,VWS V14.01,2013-08-23 15:25:00,
2013-08-23 11:30:00,74.8,48.2,30.15,SE,135,2.5,2.5,39,0.00,,-RA,0.00,VWS V14.01,2013-08-23 15:30:00,
2013-08-23 11:35:00,75.0,48.4,30.15,NW,315,4.3,4.3,39,0.00,,-RA,0.00,VWS V14.01,2013-08-23 15:35:00,
2013-08-23 11:40:00,75.2,45.7,30.15,NNE,22,4.3,4.3,35,0.00,,-RA,0.00,VWS V14.01,2013-08-23 15:40:00,
2013-08-23 11:45:00,75.2,46.4,30.15,NNE,22,3.1,3.1,36,0.00,,-RA,0.00,VWS V14.01,2013-08-23 15:45:00,
2013-08-23 11:50:00,75.6,45.2,30.15,NNE,22,5.8,5.8,34,0.00,,-RA,0.00,VWS V14.01,2013-08-23 15:50:00,
2013-08-23 11:55:00,75.9,46.3,30.15,NNE,22,2.2,2.2,35,0.00,,-RA,0.00,VWS V14.01,2013-08-23 15:55:00,
2013-08-23 12:00:00,76.3,45.9,30.15,South,180,2.5,2.5,34,0.00,,-RA,0.00,VWS V14.01,2013-08-23 16:00:00,
2013-08-23 12:04:00,76.6,47.0,30.15,North,0,6.3,6.3,35,0.00,,-RA,0.00,VWS V14.01,2013-08-23 16:04:00,
2013-08-23 12:09:00,76.6,46.2,30.15,NE,45,1.6,1.6,34,0.00,,-RA,0.00,VWS V14.01,2013-08-23 16:09:00,
2013-08-23 12:14:00,76.8,46.3,30.15,North,0,2.5,2.5,34,0.00,,-RA,0.00,VWS V14.01,2013-08-23 16:14:00,
2013-08-23 12:19:00,77.0,45.7,30.15,SSW,202,2.5,2.5,33,0.00,,-RA,0.00,VWS V14.01,2013-08-23 16:19:00,
2013-08-23 12:24:00,77.2,45.9,30.15,North,0,0.0,0.0,33,0.00,,-RA,0.00,VWS V14.01,2013-08-23 16:24:00,
2013-08-23 12:29:00,77.5,46.2,30.15,North,0,2.0,2.0,33,0.00,,-RA,0.00,VWS V14.01,2013-08-23 16:29:00,
2013-08-23 12:34:00,77.5,45.4,30.15,NE,45,0.0,0.0,32,0.00,,-RA,0.00,VWS V14.01,2013-08-23 16:34:00,
2013-08-23 12:39:00,77.5,45.4,30.15,North,0,5.6,5.6,32,0.00,,-RA,0.00,VWS V14.01,2013-08-23 16:39:00,
2013-08-23 12:44:00,77.7,45.5,30.12,WNW,292,1.6,1.6,32,0.00,,-RA,0.00,VWS V14.01,2013-08-23 16:44:00,
2013-08-23 12:49:00,77.4,44.4,30.12,NNW,338,3.8,3.8,31,0.00,,-RA,0.00,VWS V14.01,2013-08-23 16:49:00,
2013-08-23 12:54:00,77.5,44.5,30.12,SSE,158,3.1,3.1,31,0.00,,-RA,0.00,VWS V14.01,2013-08-23 16:54:00,
2013-08-23 12:59:00,78.3,46.0,30.12,NNE,22,4.3,4.3,32,0.00,,-RA,0.00,VWS V14.01,2013-08-23 16:59:00,
2013-08-23 13:04:00,77.9,44.9,30.12,WSW,248,1.6,1.6,31,0.00,,-RA,0.00,VWS V14.01,2013-08-23 17:04:00,
2013-08-23 13:09:00,77.9,44.9,30.12,NNE,22,2.9,2.9,31,0.00,,-RA,0.00,VWS V14.01,2013-08-23 17:09:00,
2013-08-23 13:14:00,77.7,44.7,30.12,NNE,22,6.3,6.3,31,0.00,,-RA,0.00,VWS V14.01,2013-08-23 17:14:00,
2013-08-23 13:19:00,78.3,46.0,30.12,NE,45,3.4,3.4,32,0.00,,-RA,0.00,VWS V14.01,2013-08-23 17:19:00,
2013-08-23 13:24:00,78.8,45.6,30.12,WNW,292,4.0,4.0,31,0.00,,-RA,0.00,VWS V14.01,2013-08-23 17:24:00,
2013-08-23 13:29:00,78.3,45.2,30.12,East,90,2.0,2.0,31,0.00,,-RA,0.00,VWS V14.01,2013-08-23 17:29:00,
2013-08-23 13:34:00,78.8,45.6,30.12,NW,315,3.6,3.6,31,0.00,,-RA,0.00,VWS V14.01,2013-08-23 17:34:00,
2013-08-23 13:39:00,79.0,45.8,30.12,North,0,6.0,6.0,31,0.00,,-RA,0.00,VWS V14.01,2013-08-23 17:39:00,
2013-08-23 13:44:00,79.0,44.9,30.12,NNW,338,4.0,4.0,30,0.00,,-RA,0.00,VWS V14.01,2013-08-23 17:44:00,
2013-08-23 13:49:00,79.0,44.9,30.12,WNW,292,2.9,2.9,30,0.00,,-RA,0.00,VWS V14.01,2013-08-23 17:49:00,
2013-08-23 13:54:00,79.2,45.1,30.12,NNE,22,5.8,5.8,30,0.00,,-RA,0.00,VWS V14.01,2013-08-23 17:54:00,
2013-08-23 13:59:00,79.3,45.2,30.12,NNE,22,2.2,2.2,30,0.00,,-RA,0.00,VWS V14.01,2013-08-23 17:59:00,
2013-08-23 14:04:00,79.5,45.4,30.12,NNW,338,3.1,3.1,30,0.00,,-RA,0.00,VWS V14.01,2013-08-23 18:04:00,
2013-08-23 14:09:00,79.5,45.4,30.12,North,0,3.4,3.4,30,0.00,,-RA,0.00,VWS V14.01,2013-08-23 18:09:00,
2013-08-23 14:14:00,80.1,45.9,30.12,NNW,338,0.0,0.0,30,0.00,,-RA,0.00,VWS V14.01,2013-08-23 18:14:00,
2013-08-23 14:19:00,79.9,45.7,30.12,North,0,1.3,1.3,30,0.00,,-RA,0.00,VWS V14.01,2013-08-23 18:19:00,
2013-08-23 14:24:00,79.5,45.4,30.12,NE,45,2.5,2.5,30,0.00,,-RA,0.00,VWS V14.01,2013-08-23 18:24:00,
2013-08-23 14:29:00,80.1,45.9,30.12,NW,315,1.1,1.1,30,0.00,,-RA,0.00,VWS V14.01,2013-08-23 18:29:00,
2013-08-23 14:34:00,79.0,44.9,30.12,NNW,338,1.3,1.3,30,0.00,,-RA,0.00,VWS V14.01,2013-08-23 18:34:00,
2013-08-23 14:39:00,79.3,45.2,30.12,NNW,338,2.7,2.7,30,0.00,,-RA,0.00,VWS V14.01,2013-08-23 18:39:00,
2013-08-23 14:44:00,79.3,45.2,30.12,WSW,248,4.0,4.0,30,0.00,,-RA,0.00,VWS V14.01,2013-08-23 18:44:00,
2013-08-23 14:49:00,79.5,45.4,30.12,NE,45,3.8,3.8,30,0.00,,-RA,0.00,VWS V14.01,2013-08-23 18:49:00,
2013-08-23 14:54:00,80.1,45.9,30.12,NNE,22,2.5,2.5,30,0.00,,-RA,0.00,VWS V14.01,2013-08-23 18:54:00,
2013-08-23 14:59:00,80.2,46.9,30.12,NNE,22,2.7,2.7,31,0.00,,-RA,0.00,VWS V14.01,2013-08-23 18:59:00,
2013-08-23 15:04:00,79.9,45.7,30.12,NNW,338,2.9,2.9,30,0.00,,-RA,0.00,VWS V14.01,2013-08-23 19:04:00,
2013-08-23 15:09:00,79.9,45.7,30.12,NW,315,1.3,1.3,30,0.00,,-RA,0.00,VWS V14.01,2013-08-23 19:09:00,
2013-08-23 15:14:00,79.7,45.6,30.09,NNE,22,1.3,1.3,30,0.00,,-RA,0.00,VWS V14.01,2013-08-23 19:14:00,
2013-08-23 15:19:00,80.1,45.9,30.09,NNW,338,3.1,3.1,30,0.00,,-RA,0.00,VWS V14.01,2013-08-23 19:19:00,
2013-08-23 15:24:00,80.1,45.9,30.09,SSE,158,3.8,3.8,30,0.00,,-RA,0.00,VWS V14.01,2013-08-23 19:24:00,
2013-08-23 15:29:00,80.2,46.0,30.09,NNE,22,2.5,2.5,30,0.00,,-RA,0.00,VWS V14.01,2013-08-23 19:29:00,
2013-08-23 15:34:00,80.2,46.0,30.09,WSW,248,3.8,3.8,30,0.00,,-RA,0.00,VWS V14.01,2013-08-23 19:34:00,
2013-08-23 15:39:00,79.7,45.6,30.09,South,180,2.2,2.2,30,0.00,,-RA,0.00,VWS V14.01,2013-08-23 19:39:00,
2013-08-23 15:44:00,79.9,45.7,30.09,North,0,2.7,2.7,30,0.00,,-RA,0.00,VWS V14.01,2013-08-23 19:44:00,
2013-08-23 15:49:00,80.1,45.9,30.09,NNE,22,6.5,6.5,30,0.00,,-RA,0.00,VWS V14.01,2013-08-23 19:49:00,
2013-08-23 15:54:00,80.2,46.0,30.09,NE,45,6.3,6.3,30,0.00,,-RA,0.00,VWS V14.01,2013-08-23 19:54:00,
2013-08-23 15:59:00,80.2,46.0,30.09,NNW,338,1.3,1.3,30,0.00,,-RA,0.00,VWS V14.01,2013-08-23 19:59:00,
2013-08-23 16:04:00,79.9,45.7,30.09,WSW,248,2.7,2.7,30,0.00,,-RA,0.00,VWS V14.01,2013-08-23 20:04:00,
2013-08-23 16:09:00,79.9,45.7,30.09,ESE,112,4.3,4.3,30,0.00,,-RA,0.00,VWS V14.01,2013-08-23 20:09:00,
2013-08-23 16:14:00,79.9,45.7,30.09,NNE,22,2.5,2.5,30,0.00,,-RA,0.00,VWS V14.01,2013-08-23 20:14:00,
2013-08-23 16:19:00,80.1,45.9,30.09,ESE,112,5.4,5.4,30,0.00,,-RA,0.00,VWS V14.01,2013-08-23 20:19:00,
2013-08-23 16:24:00,80.2,46.0,30.09,ESE,112,2.0,2.0,30,0.00,,-RA,0.00,VWS V14.01,2013-08-23 20:24:00,
2013-08-23 16:29:00,80.2,46.0,30.09,North,0,3.4,3.4,30,0.00,,-RA,0.00,VWS V14.01,2013-08-23 20:29:00,
2013-08-23 16:34:00,80.2,46.0,30.09,SSE,158,4.3,4.3,30,0.00,,-RA,0.00,VWS V14.01,2013-08-23 20:34:00,
2013-08-23 16:39:00,80.4,46.2,30.09,SE,135,3.1,3.1,30,0.00,,-RA,0.00,VWS V14.01,2013-08-23 20:39:00,
2013-08-23 16:44:00,80.4,46.2,30.09,SSE,158,0.0,0.0,30,0.00,,-RA,0.00,VWS V14.01,2013-08-23 20:44:00,
2013-08-23 16:49:00,80.4,46.2,30.09,NNE,22,0.0,0.0,30,0.00,,-RA,0.00,VWS V14.01,2013-08-23 20:49:00,
2013-08-23 16:54:00,80.1,45.9,30.09,ENE,68,2.7,2.7,30,0.00,,-RA,0.00,VWS V14.01,2013-08-23 20:54:00,
2013-08-23 16:59:00,79.5,45.4,30.09,NNE,22,0.0,0.0,30,0.00,,-RA,0.00,VWS V14.01,2013-08-23 20:59:00,
2013-08-23 17:04:00,79.3,45.2,30.09,WNW,292,0.0,0.0,30,0.00,,-RA,0.00,VWS V14.01,2013-08-23 21:04:00,
2013-08-23 17:09:00,79.0,44.9,30.09,North,0,0.0,0.0,30,0.00,,-RA,0.00,VWS V14.01,2013-08-23 21:09:00,
2013-08-23 17:14:00,79.0,44.9,30.09,SE,135,2.5,2.5,30,0.00,,-RA,0.00,VWS V14.01,2013-08-23 21:14:00,
2013-08-23 17:19:00,78.8,44.8,30.09,ESE,112,6.0,6.0,30,0.00,,-RA,0.00,VWS V14.01,2013-08-23 21:19:00,
2013-08-23 17:24:00,78.4,44.5,30.09,SSW,202,3.8,3.8,30,0.00,,-RA,0.00,VWS V14.01,2013-08-23 21:24:00,
2013-08-23 17:29:00,78.3,44.3,30.09,ENE,68,1.6,1.6,30,0.00,,-RA,0.00,VWS V14.01,2013-08-23 21:29:00,
2013-08-23 17:34:00,78.1,44.2,30.09,SSE,158,4.3,4.3,30,0.00,,-RA,0.00,VWS V14.01,2013-08-23 21:34:00,
2013-08-23 17:39:00,78.3,44.3,30.09,ESE,112,2.7,2.7,30,0.00,,-RA,0.00,VWS V14.01,2013-08-23 21:39:00,
2013-08-23 17:44:00,78.3,44.3,30.09,NNE,22,2.5,2.5,30,0.00,,-RA,0.00,VWS V14.01,2013-08-23 21:44:00,
2013-08-23 17:49:00,78.1,44.2,30.09,NNE,22,2.5,2.5,30,0.00,,-RA,0.00,VWS V14.01,2013-08-23 21:49:00,
2013-08-23 17:54:00,77.9,44.0,30.09,NE,45,3.4,3.4,30,0.00,,-RA,0.00,VWS V14.01,2013-08-23 21:54:00,
2013-08-23 17:59:00,77.7,43.8,30.09,SE,135,2.0,2.0,30,0.00,,-RA,0.00,VWS V14.01,2013-08-23 21:59:00,
2013-08-23 18:04:00,77.7,43.8,30.09,NE,45,3.1,3.1,30,0.00,,-RA,0.00,VWS V14.01,2013-08-23 22:04:00,
2013-08-23 18:09:00,77.7,43.8,30.09,SSW,202,1.6,1.6,30,0.00,,-RA,0.00,VWS V14.01,2013-08-23 22:09:00,
2013-08-23 18:14:00,78.4,44.5,30.09,North,0,1.3,1.3,30,0.00,,-RA,0.00,VWS V14.01,2013-08-23 22:14:00,
2013-08-23 18:19:00,78.1,45.0,30.09,NNW,338,2.9,2.9,31,0.00,,-RA,0.00,VWS V14.01,2013-08-23 22:19:00,
2013-08-23 18:24:00,77.9,44.0,30.09,SSE,158,2.7,2.7,30,0.00,,-RA,0.00,VWS V14.01,2013-08-23 22:24:00,
2013-08-23 18:29:00,78.3,44.3,30.09,SE,135,0.0,0.0,30,0.00,,-RA,0.00,VWS V14.01,2013-08-23 22:29:00,
2013-08-23 18:34:00,77.9,44.9,30.09,SSW,202,0.0,0.0,31,0.00,,-RA,0.00,VWS V14.01,2013-08-23 22:34:00,
2013-08-23 18:39:00,77.5,44.5,30.09,ESE,112,2.0,2.0,31,0.00,,-RA,0.00,VWS V14.01,2013-08-23 22:39:00,
2013-08-23 18:44:00,77.4,43.5,30.09,SE,135,3.1,3.1,30,0.00,,-RA,0.00,VWS V14.01,2013-08-23 22:44:00,
2013-08-23 18:49:00,77.2,44.2,30.09,ESE,112,2.2,2.2,31,0.00,,-RA,0.00,VWS V14.01,2013-08-23 22:49:00,
2013-08-23 18:54:00,77.0,44.1,30.09,NW,315,0.0,0.0,31,0.00,,-RA,0.00,VWS V14.01,2013-08-23 22:54:00,
2013-08-23 18:59:00,77.2,44.2,30.09,NE,45,2.9,2.9,31,0.00,,-RA,0.00,VWS V14.01,2013-08-23 22:59:00,
2013-08-23 19:04:00,77.2,44.2,30.09,WSW,248,0.0,0.0,31,0.00,,-RA,0.00,VWS V14.01,2013-08-23 23:04:00,
2013-08-23 19:09:00,76.8,43.9,30.09,NNW,338,0.0,0.0,31,0.00,,-RA,0.00,VWS V14.01,2013-08-23 23:09:00,
2013-08-23 19:14:00,76.5,43.6,30.09,South,180,0.0,0.0,31,0.00,,-RA,0.00,VWS V14.01,2013-08-23 23:14:00,
2013-08-23 19:19:00,76.1,43.3,30.09,WNW,292,0.0,0.0,31,0.00,,-RA,0.00,VWS V14.01,2013-08-23 23:19:00,
2013-08-23 19:24:00,75.9,43.1,30.09,NNE,22,1.1,1.1,31,0.00,,-RA,0.00,VWS V14.01,2013-08-23 23:24:00,
2013-08-23 19:29:00,75.7,43.0,30.09,NNE,22,0.0,0.0,31,0.00,,-RA,0.00,VWS V14.01,2013-08-23 23:29:00,
2013-08-23 19:34:00,75.4,43.5,30.09,NNE,22,0.0,0.0,32,0.00,,-RA,0.00,VWS V14.01,2013-08-23 23:34:00,
2013-08-23 19:39:00,74.8,43.0,30.09,NE,45,0.0,0.0,32,0.00,,-RA,0.00,VWS V14.01,2013-08-23 23:39:00,
2013-08-23 19:44:00,74.5,42.7,30.09,North,0,0.0,0.0,32,0.00,,-RA,0.00,VWS V14.01,2013-08-23 23:44:00,
2013-08-23 19:49:00,74.3,43.4,30.09,ENE,68,0.0,0.0,33,0.00,,-RA,0.00,VWS V14.01,2013-08-23 23:49:00,
2013-08-23 19:54:00,73.9,43.0,30.09,East,90,0.0,0.0,33,0.00,,-RA,0.00,VWS V14.01,2013-08-23 23:54:00,
2013-08-23 19:59:00,73.6,42.7,30.12,ENE,68,0.0,0.0,33,0.00,,-RA,0.00,VWS V14.01,2013-08-23 23:59:00,
2013-08-23 20:04:00,73.2,43.2,30.12,SSW,202,0.0,0.0,34,0.00,,-RA,0.00,VWS V14.01,2013-08-24 00:04:00,
2013-08-23 20:09:00,72.7,43.5,30.12,East,90,0.0,0.0,35,0.00,,-RA,0.00,VWS V14.01,2013-08-24 00:09:00,
2013-08-23 20:14:00,72.3,43.2,30.09,East,90,0.0,0.0,35,0.00,,-RA,0.00,VWS V14.01,2013-08-24 00:14:00,
2013-08-23 20:19:00,72.0,44.3,30.09,East,90,0.0,0.0,37,0.00,,-RA,0.00,VWS V14.01,2013-08-24 00:19:00,
2013-08-23 20:24:00,71.4,44.5,30.09,East,90,0.0,0.0,38,0.00,,-RA,0.00,VWS V14.01,2013-08-24 00:24:00,
2013-08-23 20:29:00,71.1,44.9,30.09,East,90,0.0,0.0,39,0.00,,-RA,0.00,VWS V14.01,2013-08-24 00:29:00,
2013-08-23 20:34:00,70.7,45.2,30.09,East,90,0.0,0.0,40,0.00,,-RA,0.00,VWS V14.01,2013-08-24 00:34:00,
2013-08-23 20:39:00,70.2,45.4,30.09,East,90,0.0,0.0,41,0.00,,-RA,0.00,VWS V14.01,2013-08-24 00:39:00,
2013-08-23 20:44:00,69.8,45.7,30.09,East,90,0.0,0.0,42,0.00,,-RA,0.00,VWS V14.01,2013-08-24 00:44:00,
2013-08-23 20:49:00,69.3,45.2,30.09,East,90,0.0,0.0,42,0.00,,-RA,0.00,VWS V14.01,2013-08-24 00:49:00,
2013-08-23 20:53:00,68.9,45.5,30.09,East,90,0.0,0.0,43,0.00,,-RA,0.00,VWS V14.01,2013-08-24 00:53:00,
2013-08-23 20:58:00,68.5,45.2,30.09,East,90,0.0,0.0,43,0.00,,-RA,0.00,VWS V14.01,2013-08-24 00:58:00,
2013-08-23 21:03:00,68.2,45.5,30.09,East,90,0.0,0.0,44,0.00,,-RA,0.00,VWS V14.01,2013-08-24 01:03:00,
2013-08-23 21:08:00,67.8,45.7,30.09,East,90,0.0,0.0,45,0.00,,-RA,0.00,VWS V14.01,2013-08-24 01:08:00,
2013-08-23 21:13:00,67.6,46.1,30.09,East,90,0.0,0.0,46,0.00,,-RA,0.00,VWS V14.01,2013-08-24 01:13:00,
2013-08-23 21:18:00,67.3,45.8,30.09,East,90,0.0,0.0,46,0.00,,-RA,0.00,VWS V14.01,2013-08-24 01:18:00,
2013-08-23 21:23:00,66.9,46.6,30.09,SSW,202,0.0,0.0,48,0.00,,-RA,0.00,VWS V14.01,2013-08-24 01:23:00,
2013-08-23 21:28:00,66.7,47.0,30.09,SSW,202,0.0,0.0,49,0.00,,-RA,0.00,VWS V14.01,2013-08-24 01:28:00,
2013-08-23 21:33:00,66.6,47.4,30.09,SSE,158,0.0,0.0,50,0.00,,-RA,0.00,VWS V14.01,2013-08-24 01:33:00,
2013-08-23 21:38:00,66.4,47.7,30.09,SSE,158,0.0,0.0,51,0.00,,-RA,0.00,VWS V14.01,2013-08-24 01:38:00,
2013-08-23 21:43:00,66.2,47.6,30.12,WSW,248,0.0,0.0,51,0.00,,-RA,0.00,VWS V14.01,2013-08-24 01:43:00,
2013-08-23 21:48:00,66.0,47.9,30.12,WSW,248,0.0,0.0,52,0.00,,-RA,0.00,VWS V14.01,2013-08-24 01:48:00,
2013-08-23 21:53:00,65.7,48.1,30.12,North,0,0.0,0.0,53,0.00,,-RA,0.00,VWS V14.01,2013-08-24 01:53:00,
2013-08-23 21:58:00,65.5,47.9,30.12,WNW,292,0.0,0.0,53,0.00,,-RA,0.00,VWS V14.01,2013-08-24 01:58:00,
2013-08-23 22:03:00,65.3,48.2,30.12,WNW,292,0.0,0.0,54,0.00,,-RA,0.00,VWS V14.01,2013-08-24 02:03:00,
2013-08-23 22:08:00,65.1,48.1,30.12,WNW,292,0.0,0.0,54,0.00,,-RA,0.00,VWS V14.01,2013-08-24 02:08:00,
2013-08-23 22:13:00,65.1,48.1,30.12,WNW,292,0.0,0.0,54,0.00,,-RA,0.00,VWS V14.01,2013-08-24 02:13:00,
2013-08-23 22:18:00,64.9,47.9,30.12,WNW,292,0.0,0.0,54,0.00,,-RA,0.00,VWS V14.01,2013-08-24 02:18:00,
2013-08-23 22:23:00,64.8,48.2,30.12,NNE,22,0.0,0.0,55,0.00,,-RA,0.00,VWS V14.01,2013-08-24 02:23:00,
2013-08-23 22:28:00,64.8,48.7,30.15,NNE,22,0.0,0.0,56,0.00,,-RA,0.00,VWS V14.01,2013-08-24 02:28:00,
2013-08-23 22:33:00,64.6,48.5,30.15,WSW,248,0.0,0.0,56,0.00,,-RA,0.00,VWS V14.01,2013-08-24 02:33:00,
2013-08-23 22:38:00,64.6,49.0,30.15,North,0,0.0,0.0,57,0.00,,-RA,0.00,VWS V14.01,2013-08-24 02:38:00,
2013-08-23 22:43:00,64.4,48.8,30.12,North,0,0.0,0.0,57,0.00,,-RA,0.00,VWS V14.01,2013-08-24 02:43:00,
2013-08-23 22:48:00,64.4,49.3,30.12,NNE,22,0.0,0.0,58,0.00,,-RA,0.00,VWS V14.01,2013-08-24 02:48:00,
2013-08-23 22:53:00,64.6,49.0,30.12,WNW,292,2.2,2.2,57,0.00,,-RA,0.00,VWS V14.01,2013-08-24 02:53:00,
2013-08-23 22:58:00,64.6,49.5,30.12,NE,45,2.0,2.0,58,0.00,,-RA,0.00,VWS V14.01,2013-08-24 02:58:00,
2013-08-23 23:03:00,64.6,49.5,30.12,NE,45,1.6,1.6,58,0.00,,-RA,0.00,VWS V14.01,2013-08-24 03:03:00,
2013-08-23 23:08:00,64.8,49.7,30.12,SE,135,2.5,2.5,58,0.00,,-RA,0.00,VWS V14.01,2013-08-24 03:08:00,
2013-08-23 23:13:00,64.8,49.7,30.12,NW,315,0.0,0.0,58,0.00,,-RA,0.00,VWS V14.01,2013-08-24 03:13:00,
2013-08-23 23:18:00,64.6,49.5,30.12,NW,315,0.0,0.0,58,0.00,,-RA,0.00,VWS V14.01,2013-08-24 03:18:00,
2013-08-23 23:23:00,64.4,49.3,30.12,WNW,292,0.0,0.0,58,0.00,,-RA,0.00,VWS V14.01,2013-08-24 03:23:00,
2013-08-23 23:28:00,64.2,49.6,30.12,WSW,248,0.0,0.0,59,0.00,,-RA,0.00,VWS V14.01,2013-08-24 03:28:00,
2013-08-23 23:33:00,64.0,49.9,30.12,SSE,158,0.0,0.0,60,0.00,,-RA,0.00,VWS V14.01,2013-08-24 03:33:00,
2013-08-23 23:38:00,63.9,49.7,30.12,SSE,158,0.0,0.0,60,0.00,,-RA,0.00,VWS V14.01,2013-08-24 03:38:00,
2013-08-23 23:43:00,63.7,50.0,30.12,SSE,158,0.0,0.0,61,0.00,,-RA,0.00,VWS V14.01,2013-08-24 03:43:00,
2013-08-23 23:48:00,63.5,50.3,30.12,East,90,0.0,0.0,62,0.00,,-RA,0.00,VWS V14.01,2013-08-24 03:48:00,
2013-08-23 23:53:00,63.3,50.5,30.12,SSE,158,0.0,0.0,63,0.00,,-RA,0.00,VWS V14.01,2013-08-24 03:53:00,
2013-08-23 23:58:00,63.1,50.3,30.15,NE,45,0.0,0.0,63,0.00,,-RA,0.00,VWS V14.01,2013-08-24 03:58:00,